Terminal Aerodrome Forecast
Issued by NWS Blacksburg, VA

Home | Current Version | Previous Version | Text Only | Print | Product List | Glossary On
Versions: 1 2 3 4 5 6 7 8 9 10 11 12 13 14 15 16 17 18 19 20 21 22 23 24 25 26 27
000
FTUS41 KRNK 232321
TAFDAN
TAF
KDAN 232321Z 2400/2424 05009KT P6SM -RA SCT008
      TEMPO 2400/2403 4SM -RA OVC008
     FM240300 05010KT 4SM RA OVC008
     FM241200 04011KT 4SM SHRA OVC008=

USA.gov is the U.S. government's official web portal to all federal, state and local government web resources and services.